createdAt,value
2022-11-24T00:01:20.206Z,96153.78
2022-11-24T00:03:52.057Z,96151.44
2022-11-24T00:06:18.622Z,96149.09
2022-11-24T00:08:45.932Z,96136.97
2022-11-24T00:11:13.902Z,96130.84
2022-11-24T00:13:40.965Z,96120.91
2022-11-24T00:16:09.218Z,96117.91
2022-11-24T00:18:35.732Z,96109.22
2022-11-24T00:21:02.443Z,96100.41
2022-11-24T00:23:28.907Z,96092.06
2022-11-24T00:25:57.241Z,96097.41
2022-11-24T00:28:23.678Z,96104.31
2022-11-24T00:30:50.897Z,96095.19
2022-11-24T00:33:18.275Z,96092.53
2022-11-24T00:35:44.744Z,96092.53
2022-11-24T00:38:11.199Z,96089.84
2022-11-24T00:40:37.655Z,96087.63
2022-11-24T00:43:04.214Z,96076.28
2022-11-24T00:45:30.679Z,96082.41
2022-11-24T00:47:57.170Z,96078.50
2022-11-24T00:50:23.670Z,96069.38
2022-11-24T00:52:50.121Z,96072.03
2022-11-24T00:55:16.566Z,96076.28
2022-11-24T00:57:44.938Z,96073.16
2022-11-24T01:00:11.521Z,96070.94
2022-11-24T01:02:38.042Z,96074.84
2022-11-24T01:05:04.695Z,96075.28
2022-11-24T01:07:31.234Z,96062.81
2022-11-24T01:09:57.791Z,96062.47
2022-11-24T01:12:24.249Z,96069.03
2022-11-24T01:14:50.671Z,96062.25
2022-11-24T01:17:17.127Z,96064.69
2022-11-24T01:19:43.550Z,96066.72
2022-11-24T01:22:10.027Z,96067.03
2022-11-24T01:24:36.631Z,96063.13
2022-11-24T01:27:03.198Z,96067.47
2022-11-24T01:29:29.702Z,96066.50
2022-11-24T01:31:56.189Z,96059.09
2022-11-24T01:34:22.842Z,96059.13
2022-11-24T01:36:49.287Z,96052.50
2022-11-24T01:39:15.780Z,96045.03
2022-11-24T01:41:42.315Z,96086.44
2022-11-24T01:44:26.048Z,96104.59
2022-11-24T01:47:15.774Z,96106.59
2022-11-24T01:49:47.391Z,96089.88
2022-11-24T01:52:16.293Z,96076.28
2022-11-24T01:54:45.645Z,96078.06
2022-11-24T01:57:22.215Z,96092.34
2022-11-24T01:59:50.510Z,96088.31
2022-11-24T02:02:17.620Z,96085.19
2022-11-24T02:04:44.379Z,96077.19
2022-11-24T02:07:11.965Z,96083.63
2022-11-24T02:09:44.366Z,96082.06
2022-11-24T02:12:11.390Z,96080.63
2022-11-24T02:14:38.198Z,96074.50
2022-11-24T02:17:04.672Z,96068.50
2022-11-24T02:19:40.093Z,96058.25
2022-11-24T02:22:23.191Z,96052.44
2022-11-24T02:24:56.171Z,96029.69
2022-11-24T02:27:23.490Z,96039.72
2022-11-24T02:29:50.386Z,96040.75
2022-11-24T02:32:18.602Z,96046.44
2022-11-24T02:34:45.874Z,96036.84
2022-11-24T02:37:12.363Z,96042.19
2022-11-24T02:39:38.937Z,96041.09
2022-11-24T02:42:08.166Z,96035.75
2022-11-24T02:44:37.891Z,96033.50
2022-11-24T02:47:11.800Z,96029.28
2022-11-24T02:49:38.696Z,96019.88
2022-11-24T02:52:05.779Z,96012.75
2022-11-24T02:54:32.928Z,96013.66
2022-11-24T02:57:00.620Z,96018.44
2022-11-24T02:59:27.130Z,96014.66
2022-11-24T03:01:53.782Z,96020.00
2022-11-24T03:04:20.302Z,96018.44
2022-11-24T03:06:46.878Z,96029.91
2022-11-24T03:09:13.369Z,96023.91
2022-11-24T03:11:40.021Z,96017.88
2022-11-24T03:14:06.503Z,96012.28
2022-11-24T03:16:33.187Z,96013.63
2022-11-24T03:18:59.896Z,96020.88
2022-11-24T03:21:26.381Z,96029.69
2022-11-24T03:23:53.258Z,96027.13
2022-11-24T03:26:21.396Z,96019.19
2022-11-24T03:28:47.930Z,96028.56
2022-11-24T03:31:15.573Z,96027.13
2022-11-24T03:33:42.930Z,96029.41
2022-11-24T03:36:09.683Z,96034.88
2022-11-24T03:38:36.427Z,96026.75
2022-11-24T03:41:02.992Z,96025.72
2022-11-24T03:43:29.463Z,96013.19
2022-11-24T03:45:56.630Z,96023.84
2022-11-24T03:48:23.235Z,96052.41
2022-11-24T03:50:57.726Z,96071.38
2022-11-24T03:53:25.254Z,96064.72
2022-11-24T03:55:51.716Z,96048.41
2022-11-24T03:58:18.883Z,96068.03
2022-11-24T04:00:45.556Z,96070.06
2022-11-24T04:03:12.020Z,96076.06
2022-11-24T04:05:38.634Z,96080.53
2022-11-24T04:08:05.644Z,96079.75
2022-11-24T04:10:33.060Z,96080.06
2022-11-24T04:12:59.485Z,96080.41
2022-11-24T04:15:28.120Z,96086.53
2022-11-24T04:17:55.054Z,96078.72
2022-11-24T04:20:21.891Z,96078.31
2022-11-24T04:22:49.669Z,96065.25
2022-11-24T04:25:17.507Z,96054.00
2022-11-24T04:27:43.966Z,96072.50
2022-11-24T04:30:13.099Z,96076.06
2022-11-24T04:32:40.187Z,96077.16
2022-11-24T04:35:08.710Z,96077.16
2022-11-24T04:37:35.152Z,96068.72
2022-11-24T04:40:01.631Z,96074.06
2022-11-24T04:42:30.124Z,96066.06
2022-11-24T04:44:56.559Z,96065.81
2022-11-24T04:47:24.427Z,96044.16
2022-11-24T04:49:51.409Z,96048.44
2022-11-24T04:52:18.224Z,96059.69
2022-11-24T04:54:44.646Z,96064.94
2022-11-24T04:57:16.858Z,96063.81
2022-11-24T04:59:43.435Z,96070.50
2022-11-24T05:02:10.052Z,96069.16
2022-11-24T05:04:37.071Z,96071.81
2022-11-24T05:07:05.580Z,96077.88
2022-11-24T05:09:58.187Z,96080.53
2022-11-24T05:12:20.466Z,96083.22
2022-11-24T05:14:46.926Z,96088.78
2022-11-24T05:17:13.315Z,96087.97
2022-11-24T05:19:39.781Z,96083.31
2022-11-24T05:22:06.197Z,96088.78
2022-11-24T05:24:32.882Z,96089.44
2022-11-24T05:26:59.511Z,96093.91
2022-11-24T05:29:25.940Z,96111.53
2022-11-24T05:31:53.074Z,96109.94
2022-11-24T05:34:20.288Z,96100.38
2022-11-24T05:36:52.906Z,96095.91
2022-11-24T05:39:19.638Z,96105.25
2022-11-24T05:41:46.044Z,96117.06
2022-11-24T05:44:12.742Z,96126.22
2022-11-24T05:46:39.272Z,96124.66
2022-11-24T05:49:05.791Z,96124.00
2022-11-24T05:51:33.368Z,96124.44
2022-11-24T05:53:59.845Z,96123.44
2022-11-24T05:56:26.251Z,96129.13
2022-11-24T05:58:52.654Z,96132.91
2022-11-24T06:01:19.097Z,96128.47
2022-11-24T06:03:45.650Z,96115.84
2022-11-24T06:06:14.454Z,96124.13
2022-11-24T06:08:40.849Z,96132.47
2022-11-24T06:11:21.016Z,96134.03
2022-11-24T06:13:48.707Z,96134.94
2022-11-24T06:16:15.668Z,96134.47
2022-11-24T06:18:42.330Z,96144.41
2022-11-24T06:21:11.577Z,96147.84
2022-11-24T06:23:38.651Z,96155.44
2022-11-24T06:26:05.576Z,96161.13
2022-11-24T06:28:32.335Z,96161.91
2022-11-24T06:31:02.303Z,96163.25
2022-11-24T06:33:32.156Z,96166.13
2022-11-24T06:36:03.503Z,96176.41
2022-11-24T06:38:30.305Z,96192.47
2022-11-24T06:41:03.642Z,96200.69
2022-11-24T06:43:30.642Z,96194.78
2022-11-24T06:45:57.486Z,96177.06
2022-11-24T06:48:24.502Z,96178.84
2022-11-24T06:50:51.396Z,96180.84
2022-11-24T06:53:17.996Z,96172.59
2022-11-24T06:55:45.340Z,96165.03
2022-11-24T06:58:12.427Z,96177.94
2022-11-24T07:00:38.936Z,96175.97
2022-11-24T07:03:05.469Z,96170.81
2022-11-24T07:05:31.848Z,96179.50
2022-11-24T07:08:01.300Z,96177.94
2022-11-24T07:10:27.729Z,96179.06
2022-11-24T07:12:54.181Z,96170.56
2022-11-24T07:15:20.586Z,96168.69
2022-11-24T07:17:46.958Z,96150.31
2022-11-24T07:20:13.421Z,96159.22
2022-11-24T07:22:39.816Z,96156.31
2022-11-24T07:25:07.526Z,96154.75
2022-11-24T07:27:33.972Z,96155.88
2022-11-24T07:30:00.404Z,96149.63
2022-11-24T07:32:27.621Z,96132.47
2022-11-24T07:34:54.016Z,96141.38
2022-11-24T07:37:20.377Z,96140.50
2022-11-24T07:39:46.874Z,96142.16
2022-11-24T07:42:13.298Z,96131.13
2022-11-24T07:44:40.801Z,96134.72
2022-11-24T07:47:07.202Z,96147.84
2022-11-24T07:49:33.731Z,96141.84
2022-11-24T07:52:00.975Z,96124.44
2022-11-24T07:54:27.421Z,96143.31
2022-11-24T07:56:53.831Z,96149.19
2022-11-24T07:59:20.327Z,96156.78
2022-11-24T08:01:46.992Z,96131.34
2022-11-24T08:04:13.573Z,96142.72
2022-11-24T08:06:44.608Z,96146.31
2022-11-24T08:09:13.702Z,96158.78
2022-11-24T08:11:40.179Z,96142.06
2022-11-24T08:14:06.833Z,96142.06
2022-11-24T08:16:33.354Z,96145.66
2022-11-24T08:18:59.844Z,96146.31
2022-11-24T08:21:26.337Z,96142.94
2022-11-24T08:23:58.635Z,96146.97
2022-11-24T08:26:27.138Z,96160.22
2022-11-24T08:28:55.112Z,96159.44
2022-11-24T08:31:22.391Z,96146.97
2022-11-24T08:33:49.494Z,96159.00
2022-11-24T08:36:17.067Z,96156.56
2022-11-24T08:38:44.797Z,96156.78
2022-11-24T08:41:12.575Z,96152.75
2022-11-24T08:43:39.430Z,96163.59
2022-11-24T08:46:07.329Z,96161.25
2022-11-24T08:48:33.997Z,96168.81
2022-11-24T08:51:06.604Z,96148.72
2022-11-24T08:53:33.137Z,96149.41
2022-11-24T08:56:00.425Z,96153.00
2022-11-24T08:58:27.898Z,96150.97
2022-11-24T09:00:54.313Z,96131.34
2022-11-24T09:03:20.681Z,96144.50
2022-11-24T09:05:52.132Z,96152.41
2022-11-24T09:08:19.247Z,96154.75
2022-11-24T09:10:45.782Z,96135.75
2022-11-24T09:13:12.389Z,96148.50
2022-11-24T09:15:38.790Z,96141.13
2022-11-24T09:18:05.530Z,96139.00
2022-11-24T09:20:31.952Z,96142.09
2022-11-24T09:22:58.377Z,96163.78
2022-11-24T09:25:24.739Z,96152.94
2022-11-24T09:27:51.585Z,96152.81
2022-11-24T09:30:18.369Z,96160.53
2022-11-24T09:32:45.761Z,96167.13
2022-11-24T09:35:12.767Z,96170.25
2022-11-24T09:37:39.141Z,96172.38
2022-11-24T09:40:06.257Z,96190.44
2022-11-24T09:42:32.688Z,96183.53
2022-11-24T09:45:22.787Z,96176.28
2022-11-24T09:48:23.195Z,96184.88
2022-11-24T09:50:49.766Z,96182.00
2022-11-24T09:53:26.358Z,96176.38
2022-11-24T09:55:56.072Z,96182.19
2022-11-24T09:58:35.617Z,96180.63
2022-11-24T10:01:04.858Z,96173.25
2022-11-24T10:03:36.909Z,96174.94
2022-11-24T10:06:07.437Z,96186.88
2022-11-24T10:09:03.224Z,96196.91
2022-11-24T10:11:44.928Z,96173.00
2022-11-24T10:14:29.945Z,96190.22
2022-11-24T10:17:15.028Z,96200.72
2022-11-24T10:19:47.645Z,96195.31
2022-11-24T10:22:17.118Z,96194.47
2022-11-24T10:25:02.454Z,96204.63
2022-11-24T10:27:33.944Z,96206.19
2022-11-24T10:30:00.480Z,96184.84
2022-11-24T10:32:32.860Z,96203.28
2022-11-24T10:35:02.845Z,96210.75
2022-11-24T10:37:45.692Z,96202.91
2022-11-24T10:40:40.544Z,96199.78
2022-11-24T10:43:01.273Z,96209.38
2022-11-24T10:45:28.146Z,96210.75
2022-11-24T10:47:54.673Z,96201.34
2022-11-24T10:50:25.462Z,96204.94
2022-11-24T10:53:00.945Z,96220.03
2022-11-24T10:55:47.545Z,96226.16
2022-11-24T10:58:17.118Z,96203.25
2022-11-24T11:00:43.614Z,96216.41
2022-11-24T11:03:11.906Z,96224.78
2022-11-24T11:05:42.447Z,96216.53
2022-11-24T11:08:11.992Z,96220.88
2022-11-24T11:10:38.548Z,96243.22
2022-11-24T11:13:21.053Z,96244.66
2022-11-24T11:15:47.614Z,96232.06
2022-11-24T11:18:18.068Z,96241.09
2022-11-24T11:20:54.977Z,96249.34
2022-11-24T11:23:24.478Z,96252.25
2022-11-24T11:25:50.959Z,96241.31
2022-11-24T11:28:18.281Z,96242.66
2022-11-24T11:31:18.118Z,96249.34
2022-11-24T11:34:23.221Z,96248.91
2022-11-24T11:36:53.374Z,96242.19
2022-11-24T11:39:31.817Z,96260.28
2022-11-24T11:42:07.046Z,96264.66
2022-11-24T11:44:36.974Z,96260.41
2022-11-24T11:47:12.088Z,96264.31
2022-11-24T11:49:38.892Z,96269.44
2022-11-24T11:52:18.325Z,96272.34
2022-11-24T11:55:08.352Z,96265.44
2022-11-24T11:57:46.870Z,96256.69
2022-11-24T12:00:18.131Z,96261.84
2022-11-24T12:03:04.968Z,96275.59
2022-11-24T12:05:50.261Z,96263.84
2022-11-24T12:08:24.169Z,96272.56
2022-11-24T12:10:53.450Z,96278.16
2022-11-24T12:13:32.109Z,96282.72
2022-11-24T12:16:03.897Z,96272.78
2022-11-24T12:18:56.490Z,96283.97
2022-11-24T12:21:26.828Z,96283.50
2022-11-24T12:24:12.240Z,96285.66
2022-11-24T12:26:56.957Z,96281.94
2022-11-24T12:29:24.147Z,96290.88
2022-11-24T12:32:03.230Z,96295.34
2022-11-24T12:34:45.733Z,96285.41
2022-11-24T12:37:21.728Z,96283.50
2022-11-24T12:39:54.349Z,96299.72
2022-11-24T12:42:30.060Z,96298.03
2022-11-24T12:45:02.197Z,96294.22
2022-11-24T12:47:42.843Z,96300.94
2022-11-24T12:50:09.274Z,96305.94
2022-11-24T12:52:38.785Z,96318.09
2022-11-24T12:55:08.164Z,96317.69
2022-11-24T12:57:43.702Z,96324.16
2022-11-24T13:00:12.982Z,96321.81
2022-11-24T13:02:58.346Z,96311.97
2022-11-24T13:05:47.915Z,96317.22
2022-11-24T13:08:14.456Z,96308.75
2022-11-24T13:10:57.891Z,96306.53
2022-11-24T13:13:27.900Z,96292.00
2022-11-24T13:16:20.716Z,96292.00
2022-11-24T13:18:52.660Z,96284.41
2022-11-24T13:21:47.095Z,96291.69
2022-11-24T13:26:42.641Z,96296.69
2022-11-24T13:29:44.638Z,96296.00
2022-11-24T13:32:12.521Z,96296.00
2022-11-24T13:34:39.690Z,96314.75
2022-11-24T13:37:28.815Z,96309.84
2022-11-24T13:40:01.074Z,96300.03
2022-11-24T13:42:41.163Z,96305.41
2022-11-24T13:45:30.513Z,96304.06
2022-11-24T13:47:56.888Z,96296.47
2022-11-24T13:50:25.326Z,96298.78
2022-11-24T13:52:51.725Z,96303.47
2022-11-24T13:55:22.566Z,96301.16
2022-11-24T13:57:51.164Z,96300.91
2022-11-24T14:00:20.456Z,96320.47
2022-11-24T14:02:47.099Z,96342.00
2022-11-24T14:05:15.134Z,96341.00
2022-11-24T14:07:43.813Z,96320.81
2022-11-24T14:10:17.070Z,96316.56
2022-11-24T14:12:43.957Z,96314.31
2022-11-24T14:15:27.161Z,96338.22
2022-11-24T14:17:53.583Z,96343.31
2022-11-24T14:20:26.210Z,96329.03
2022-11-24T14:22:53.518Z,96315.00
2022-11-24T14:25:32.423Z,96322.56
2022-11-24T14:28:02.260Z,96315.88
2022-11-24T14:30:28.730Z,96313.41
2022-11-24T14:33:02.789Z,96298.47
2022-11-24T14:35:31.254Z,96295.44
2022-11-24T14:37:58.476Z,96285.72
2022-11-24T14:40:45.433Z,96278.03
2022-11-24T14:43:19.769Z,96281.81
2022-11-24T14:46:09.617Z,96274.13
2022-11-24T14:48:37.006Z,96255.03
2022-11-24T14:51:06.326Z,96259.16
2022-11-24T14:53:33.381Z,96255.38
2022-11-24T14:56:06.414Z,96243.09
2022-11-24T14:58:40.541Z,96239.75
2022-11-24T15:01:19.186Z,96223.47
2022-11-24T15:03:46.706Z,96223.94
2022-11-24T15:06:16.798Z,96216.31
2022-11-24T15:08:45.814Z,96221.91
2022-11-24T15:11:13.146Z,96216.78
2022-11-24T15:13:40.089Z,96211.41
2022-11-24T15:16:08.593Z,96216.78
2022-11-24T15:18:38.128Z,96213.22
2022-11-24T15:21:04.721Z,96198.47
2022-11-24T15:23:32.224Z,96210.75
2022-11-24T15:25:58.573Z,96207.88
2022-11-24T15:28:27.931Z,96202.50
2022-11-24T15:30:57.190Z,96197.59
2022-11-24T15:33:23.776Z,96198.06
2022-11-24T15:35:50.190Z,96201.72
2022-11-24T15:38:16.754Z,96195.78
2022-11-24T15:40:47.033Z,96190.22
2022-11-24T15:43:16.149Z,96187.34
2022-11-24T15:45:42.569Z,96187.13
2022-11-24T15:48:12.323Z,96187.00
2022-11-24T15:50:41.333Z,96184.41
2022-11-24T15:53:15.287Z,96188.78
2022-11-24T15:55:41.786Z,96185.56
2022-11-24T15:58:11.573Z,96174.38
2022-11-24T16:00:38.043Z,96175.59
2022-11-24T16:03:23.952Z,96176.19
2022-11-24T16:05:53.969Z,96183.31
2022-11-24T16:08:20.423Z,96165.00
2022-11-24T16:10:46.907Z,96166.91
2022-11-24T16:13:13.985Z,96177.75
2022-11-24T16:15:40.962Z,96183.31
2022-11-24T16:18:07.429Z,96176.81
2022-11-24T16:20:37.430Z,96180.41
2022-11-24T16:23:04.294Z,96181.72
2022-11-24T16:25:30.773Z,96186.66
2022-11-24T16:27:57.636Z,96183.97
2022-11-24T16:30:24.189Z,96177.94
2022-11-24T16:32:51.230Z,96192.56
2022-11-24T16:35:18.918Z,96197.34
2022-11-24T16:37:49.659Z,96196.13
2022-11-24T16:40:16.364Z,96184.16
2022-11-24T16:42:42.963Z,96193.44
2022-11-24T16:45:11.751Z,96198.25
2022-11-24T16:47:39.455Z,96198.38
2022-11-24T16:50:06.769Z,96183.50
2022-11-24T16:52:33.186Z,96189.44
2022-11-24T16:55:00.247Z,96205.16
2022-11-24T16:57:26.693Z,96205.84
2022-11-24T16:59:53.077Z,96202.50
2022-11-24T17:02:19.531Z,96202.50
2022-11-24T17:04:46.147Z,96211.09
2022-11-24T17:07:13.857Z,96215.22
2022-11-24T17:09:40.889Z,96206.50
2022-11-24T17:12:07.556Z,96216.53
2022-11-24T17:14:34.286Z,96218.31
2022-11-24T17:17:00.975Z,96227.28
2022-11-24T17:19:29.248Z,96223.22
2022-11-24T17:21:55.613Z,96220.78
2022-11-24T17:24:22.008Z,96227.81
2022-11-24T17:26:49.765Z,96232.97
2022-11-24T17:29:16.125Z,96241.34
2022-11-24T17:31:43.100Z,96231.03
2022-11-24T17:34:10.629Z,96234.72
2022-11-24T17:36:37.413Z,96243.69
2022-11-24T17:39:04.634Z,96247.81
2022-11-24T17:41:31.244Z,96239.31
2022-11-24T17:43:57.733Z,96238.88
2022-11-24T17:46:25.260Z,96246.66
2022-11-24T17:48:51.734Z,96250.81
2022-11-24T17:51:19.454Z,96262.97
2022-11-24T17:53:46.911Z,96252.38
2022-11-24T17:56:14.513Z,96245.00
2022-11-24T17:58:43.164Z,96266.53
2022-11-24T18:01:10.354Z,96273.00
2022-11-24T18:03:38.421Z,96283.84
2022-11-24T18:06:06.040Z,96269.91
2022-11-24T18:08:33.282Z,96272.34
2022-11-24T18:11:03.873Z,96291.69
2022-11-24T18:13:55.323Z,96291.31
2022-11-24T18:16:16.959Z,96279.50
2022-11-24T18:18:48.820Z,96295.78
2022-11-24T18:21:17.924Z,96304.81
2022-11-24T18:23:44.824Z,96318.81
2022-11-24T18:26:13.185Z,96318.78
2022-11-24T18:28:39.720Z,96310.09
2022-11-24T18:31:07.891Z,96319.13
2022-11-24T18:33:39.120Z,96321.69
2022-11-24T18:36:07.040Z,96328.16
2022-11-24T18:38:36.998Z,96329.75
2022-11-24T18:41:04.064Z,96336.88
2022-11-24T18:43:30.954Z,96350.63
2022-11-24T18:45:57.626Z,96350.50
2022-11-24T18:48:24.873Z,96349.84
2022-11-24T18:50:55.396Z,96347.81
2022-11-24T18:53:23.969Z,96354.97
2022-11-24T18:56:00.509Z,96361.34
2022-11-24T18:58:28.797Z,96376.19
2022-11-24T19:00:56.393Z,96370.81
2022-11-24T19:03:22.860Z,96373.03
2022-11-24T19:05:49.265Z,96387.59
2022-11-24T19:08:15.693Z,96395.16
2022-11-24T19:10:42.150Z,96396.63
2022-11-24T19:13:08.588Z,96388.56
2022-11-24T19:15:35.194Z,96396.50
2022-11-24T19:18:02.152Z,96402.75
2022-11-24T19:20:29.000Z,96410.34
2022-11-24T19:22:55.439Z,96412.81
2022-11-24T19:25:21.800Z,96405.44
2022-11-24T19:27:48.272Z,96420.41
2022-11-24T19:30:15.669Z,96437.81
2022-11-24T19:32:42.696Z,96445.38
2022-11-24T19:35:10.109Z,96440.81
2022-11-24T19:37:37.183Z,96426.63
2022-11-24T19:40:04.103Z,96443.28
2022-11-24T19:42:30.533Z,96453.88
2022-11-24T19:44:57.047Z,96453.88
2022-11-24T19:47:23.501Z,96461.00
2022-11-24T19:49:49.896Z,96455.69
2022-11-24T19:52:18.001Z,96457.25
2022-11-24T19:54:44.617Z,96463.28
2022-11-24T19:57:10.993Z,96458.56
2022-11-24T19:59:37.904Z,96476.41
2022-11-24T20:02:04.395Z,96473.22
2022-11-24T20:04:32.953Z,96462.63
2022-11-24T20:07:00.221Z,96470.88
2022-11-24T20:09:26.590Z,96478.97
2022-11-24T20:11:53.023Z,96493.81
2022-11-24T20:14:20.033Z,96493.63
2022-11-24T20:16:47.805Z,96486.28
2022-11-24T20:19:15.473Z,96493.88
2022-11-24T20:21:46.045Z,96506.81
2022-11-24T20:24:14.718Z,96507.47
2022-11-24T20:26:45.558Z,96512.16
2022-11-24T20:29:13.098Z,96510.16
2022-11-24T20:31:40.881Z,96516.22
2022-11-24T20:34:08.412Z,96524.91
2022-11-24T20:36:35.930Z,96529.03
2022-11-24T20:39:04.372Z,96541.19
2022-11-24T20:41:32.364Z,96541.22
2022-11-24T20:43:59.839Z,96535.41
2022-11-24T20:46:27.468Z,96551.06
2022-11-24T20:48:54.648Z,96558.19
2022-11-24T20:51:22.503Z,96572.88
2022-11-24T20:53:53.093Z,96571.13
2022-11-24T20:56:21.227Z,96562.19
2022-11-24T20:58:47.670Z,96572.03
2022-11-24T21:01:14.155Z,96584.19
2022-11-24T21:03:43.534Z,96588.75
2022-11-24T21:06:10.724Z,96586.41
2022-11-24T21:08:37.580Z,96586.69
2022-11-24T21:11:04.775Z,96590.09
2022-11-24T21:13:34.904Z,96595.81
2022-11-24T21:16:10.689Z,96614.13
2022-11-24T21:18:37.173Z,96614.91
2022-11-24T21:21:03.553Z,96622.63
2022-11-24T21:23:29.912Z,96622.06
2022-11-24T21:26:05.004Z,96624.88
2022-11-24T21:28:32.293Z,96630.56
2022-11-24T21:31:03.588Z,96638.16
2022-11-24T21:33:30.370Z,96633.13
2022-11-24T21:36:01.061Z,96635.94
2022-11-24T21:38:27.461Z,96634.50
2022-11-24T21:40:53.894Z,96641.31
2022-11-24T21:43:20.305Z,96651.38
2022-11-24T21:45:46.921Z,96652.28
2022-11-24T21:48:13.304Z,96645.59
2022-11-24T21:50:39.728Z,96654.00
2022-11-24T21:53:06.101Z,96666.16
2022-11-24T21:55:32.521Z,96670.59
2022-11-24T21:57:58.881Z,96668.50
2022-11-24T22:00:25.298Z,96656.59
2022-11-24T22:02:51.711Z,96662.59
2022-11-24T22:05:18.144Z,96662.41
2022-11-24T22:07:44.570Z,96688.50
2022-11-24T22:10:11.076Z,96708.72
2022-11-24T22:12:37.499Z,96683.09
2022-11-24T22:15:03.975Z,96662.56
2022-11-24T22:17:33.197Z,96639.59
2022-11-24T22:19:59.563Z,96647.97
2022-11-24T22:22:27.734Z,96638.06
2022-11-24T22:24:54.113Z,96621.56
2022-11-24T22:27:20.598Z,96616.19
2022-11-24T22:29:50.056Z,96612.41
2022-11-24T22:32:20.924Z,96604.56
2022-11-24T22:34:48.031Z,96599.19
2022-11-24T22:37:14.392Z,96589.28
2022-11-24T22:39:40.792Z,96584.72
2022-11-24T22:42:07.208Z,96574.63
2022-11-24T22:44:33.885Z,96581.09
2022-11-24T22:47:00.598Z,96576.22
2022-11-24T22:49:30.348Z,96569.28
2022-11-24T22:51:56.708Z,96562.81
2022-11-24T22:54:23.146Z,96567.72
2022-11-24T22:56:49.581Z,96560.34
2022-11-24T22:59:16.004Z,96558.47
2022-11-24T23:01:42.374Z,96566.03
2022-11-24T23:04:08.915Z,96566.81
2022-11-24T23:06:35.385Z,96566.03
2022-11-24T23:09:02.572Z,96552.44
2022-11-24T23:11:35.089Z,96559.25
2022-11-24T23:14:04.342Z,96545.72
2022-11-24T23:16:31.117Z,96559.69
2022-11-24T23:18:58.028Z,96556.56
2022-11-24T23:21:25.680Z,96559.25
2022-11-24T23:23:52.144Z,96563.03
2022-11-24T23:26:21.309Z,96574.53
2022-11-24T23:28:48.261Z,96574.84
2022-11-24T23:31:20.808Z,96578.31
2022-11-24T23:33:48.077Z,96573.75
2022-11-24T23:36:15.368Z,96572.63
2022-11-24T23:38:41.949Z,96558.47
2022-11-24T23:41:10.841Z,96560.34
2022-11-24T23:43:38.303Z,96559.91
2022-11-24T23:46:06.099Z,96554.53
2022-11-24T23:48:32.950Z,96552.97
2022-11-24T23:51:11.590Z,96556.56
2022-11-24T23:53:38.365Z,96546.97
2022-11-24T23:56:05.157Z,96556.13
2022-11-24T23:58:31.949Z,96556.91
